sensor_id;sensor_type;location;lat;lon;timestamp;pressure;altitude;pressure_sealevel;temperature;humidity
18850;BME280;4989;48.772;9.154;2023-11-21T00:01:58;97420.41;;;8.27;100.00
18850;BME280;4989;48.772;9.154;2023-11-21T00:07:00;97417.72;;;8.27;100.00
18850;BME280;4989;48.772;9.154;2023-11-21T00:12:03;97410.03;;;8.26;100.00
18850;BME280;4989;48.772;9.154;2023-11-21T00:17:06;97401.63;;;8.20;100.00
18850;BME280;4989;48.772;9.154;2023-11-21T00:22:09;97402.38;;;8.21;100.00
18850;BME280;4989;48.772;9.154;2023-11-21T00:27:12;97404.63;;;8.26;100.00
18850;BME280;4989;48.772;9.154;2023-11-21T00:32:14;97393.00;;;8.25;100.00
18850;BME280;4989;48.772;9.154;2023-11-21T00:37:16;97400.03;;;8.23;100.00
18850;BME280;4989;48.772;9.154;2023-11-21T00:42:18;97396.91;;;8.24;100.00
18850;BME280;4989;48.772;9.154;2023-11-21T00:47:21;97399.53;;;8.28;100.00
18850;BME280;4989;48.772;9.154;2023-11-21T00:52:24;97406.53;;;8.25;100.00
18850;BME280;4989;48.772;9.154;2023-11-21T00:57:27;97404.66;;;8.22;100.00
18850;BME280;4989;48.772;9.154;2023-11-21T01:02:29;97398.41;;;8.25;100.00
18850;BME280;4989;48.772;9.154;2023-11-21T01:07:31;97405.38;;;8.26;100.00
18850;BME280;4989;48.772;9.154;2023-11-21T01:12:38;97406.22;;;8.23;100.00
18850;BME280;4989;48.772;9.154;2023-11-21T01:17:40;97406.97;;;8.24;100.00
18850;BME280;4989;48.772;9.154;2023-11-21T01:22:43;97400.78;;;8.23;100.00
18850;BME280;4989;48.772;9.154;2023-11-21T01:27:45;97397.66;;;8.25;100.00
18850;BME280;4989;48.772;9.154;2023-11-21T01:32:48;97406.03;;;8.31;100.00
18850;BME280;4989;48.772;9.154;2023-11-21T01:37:50;97394.38;;;8.34;100.00
18850;BME280;4989;48.772;9.154;2023-11-21T01:42:53;97394.38;;;8.34;100.00
18850;BME280;4989;48.772;9.154;2023-11-21T01:47:55;97398.94;;;8.37;100.00
18850;BME280;4989;48.772;9.154;2023-11-21T01:52:59;97387.97;;;8.44;100.00
18850;BME280;4989;48.772;9.154;2023-11-21T01:58:02;97394.94;;;8.45;100.00
18850;BME280;4989;48.772;9.154;2023-11-21T02:03:04;97397.28;;;8.43;100.00
18850;BME280;4989;48.772;9.154;2023-11-21T02:08:09;97397.28;;;8.43;100.00
18850;BME280;4989;48.772;9.154;2023-11-21T02:13:11;97399.72;;;8.37;100.00
18850;BME280;4989;48.772;9.154;2023-11-21T02:18:14;97392.34;;;8.38;100.00
18850;BME280;4989;48.772;9.154;2023-11-21T02:23:17;97388.13;;;8.37;100.00
18850;BME280;4989;48.772;9.154;2023-11-21T02:28:20;97381.19;;;8.36;100.00
18850;BME280;4989;48.772;9.154;2023-11-21T02:33:28;97380.44;;;8.35;100.00
18850;BME280;4989;48.772;9.154;2023-11-21T02:38:30;97383.53;;;8.34;100.00
18850;BME280;4989;48.772;9.154;2023-11-21T02:43:33;97378.81;;;8.38;100.00
18850;BME280;4989;48.772;9.154;2023-11-21T02:48:35;97370.75;;;8.34;100.00
18850;BME280;4989;48.772;9.154;2023-11-21T02:53:38;97371.28;;;8.29;100.00
18850;BME280;4989;48.772;9.154;2023-11-21T02:58:44;97371.34;;;8.25;100.00
18850;BME280;4989;48.772;9.154;2023-11-21T03:03:46;97368.31;;;8.23;100.00
18850;BME280;4989;48.772;9.154;2023-11-21T03:08:49;97381.50;;;8.21;100.00
18850;BME280;4989;48.772;9.154;2023-11-21T03:13:52;97364.06;;;8.22;100.00
18850;BME280;4989;48.772;9.154;2023-11-21T03:18:55;97378.78;;;8.21;100.00
18850;BME280;4989;48.772;9.154;2023-11-21T03:23:57;97381.41;;;8.25;100.00
18850;BME280;4989;48.772;9.154;2023-11-21T03:28:59;97379.06;;;8.27;100.00
18850;BME280;4989;48.772;9.154;2023-11-21T03:34:01;97388.59;;;8.32;100.00
18850;BME280;4989;48.772;9.154;2023-11-21T03:39:04;97371.28;;;8.29;100.00
18850;BME280;4989;48.772;9.154;2023-11-21T03:44:07;97385.22;;;8.27;100.00
18850;BME280;4989;48.772;9.154;2023-11-21T03:49:09;97389.88;;;8.27;100.00
18850;BME280;4989;48.772;9.154;2023-11-21T03:54:12;97393.34;;;8.27;100.00
18850;BME280;4989;48.772;9.154;2023-11-21T03:59:16;97404.53;;;8.30;100.00
18850;BME280;4989;48.772;9.154;2023-11-21T04:04:18;97391.56;;;8.21;100.00
18850;BME280;4989;48.772;9.154;2023-11-21T04:09:21;97396.03;;;8.11;100.00
18850;BME280;4989;48.772;9.154;2023-11-21T04:14:27;97399.63;;;8.04;100.00
18850;BME280;4989;48.772;9.154;2023-11-21T04:19:29;97398.88;;;8.04;100.00
18850;BME280;4989;48.772;9.154;2023-11-21T04:24:32;97409.69;;;8.04;100.00
18850;BME280;4989;48.772;9.154;2023-11-21T04:29:34;97398.75;;;8.11;100.00
18850;BME280;4989;48.772;9.154;2023-11-21T04:34:36;97395.50;;;8.16;100.00
18850;BME280;4989;48.772;9.154;2023-11-21T04:39:39;97396.06;;;8.27;100.00
18850;BME280;4989;48.772;9.154;2023-11-21T04:44:41;97403.25;;;8.54;100.00
18850;BME280;4989;48.772;9.154;2023-11-21T04:49:45;97411.03;;;8.85;100.00
18850;BME280;4989;48.772;9.154;2023-11-21T04:54:49;97412.22;;;9.00;100.00
18850;BME280;4989;48.772;9.154;2023-11-21T04:59:51;97411.59;;;8.92;100.00
18850;BME280;4989;48.772;9.154;2023-11-21T05:04:53;97418.28;;;9.04;100.00
18850;BME280;4989;48.772;9.154;2023-11-21T05:09:55;97420.16;;;9.24;100.00
18850;BME280;4989;48.772;9.154;2023-11-21T05:14:58;97427.44;;;9.10;100.00
18850;BME280;4989;48.772;9.154;2023-11-21T05:20:00;97426.94;;;9.15;100.00
18850;BME280;4989;48.772;9.154;2023-11-21T05:25:06;97435.22;;;9.41;100.00
18850;BME280;4989;48.772;9.154;2023-11-21T05:30:12;97440.44;;;9.48;100.00
18850;BME280;4989;48.772;9.154;2023-11-21T05:35:16;97454.16;;;9.57;100.00
18850;BME280;4989;48.772;9.154;2023-11-21T05:40:19;97450.88;;;9.79;100.00
18850;BME280;4989;48.772;9.154;2023-11-21T05:45:24;97458.34;;;9.75;100.00
18850;BME280;4989;48.772;9.154;2023-11-21T05:50:27;97461.50;;;9.73;100.00
18850;BME280;4989;48.772;9.154;2023-11-21T05:55:30;97461.00;;;9.00;100.00
18850;BME280;4989;48.772;9.154;2023-11-21T06:00:33;97455.81;;;8.89;100.00
18850;BME280;4989;48.772;9.154;2023-11-21T06:05:35;97461.41;;;9.15;100.00
18850;BME280;4989;48.772;9.154;2023-11-21T06:10:38;97465.91;;;9.05;100.00
18850;BME280;4989;48.772;9.154;2023-11-21T06:15:41;97476.56;;;9.29;100.00
18850;BME280;4989;48.772;9.154;2023-11-21T06:20:44;97479.09;;;9.20;100.00
18850;BME280;4989;48.772;9.154;2023-11-21T06:25:46;97481.06;;;9.03;100.00
18850;BME280;4989;48.772;9.154;2023-11-21T06:30:49;97483.34;;;8.71;100.00
18850;BME280;4989;48.772;9.154;2023-11-21T06:35:52;97490.56;;;8.58;100.00
18850;BME280;4989;48.772;9.154;2023-11-21T06:40:54;97498.50;;;8.49;100.00
18850;BME280;4989;48.772;9.154;2023-11-21T06:45:57;97507.66;;;8.55;100.00
18850;BME280;4989;48.772;9.154;2023-11-21T06:50:59;97518.34;;;8.99;100.00
18850;BME280;4989;48.772;9.154;2023-11-21T06:56:01;97509.13;;;8.96;100.00
18850;BME280;4989;48.772;9.154;2023-11-21T07:01:04;97515.38;;;9.26;100.00
18850;BME280;4989;48.772;9.154;2023-11-21T07:06:08;97525.38;;;9.29;100.00
18850;BME280;4989;48.772;9.154;2023-11-21T07:11:10;97524.50;;;9.81;100.00
18850;BME280;4989;48.772;9.154;2023-11-21T07:16:14;97533.09;;;9.92;100.00
18850;BME280;4989;48.772;9.154;2023-11-21T07:21:17;97538.31;;;9.86;100.00
18850;BME280;4989;48.772;9.154;2023-11-21T07:26:19;97539.94;;;9.68;100.00
18850;BME280;4989;48.772;9.154;2023-11-21T07:31:23;97554.88;;;9.59;100.00
18850;BME280;4989;48.772;9.154;2023-11-21T07:36:26;97553.19;;;9.66;100.00
18850;BME280;4989;48.772;9.154;2023-11-21T07:41:29;97557.22;;;9.74;100.00
18850;BME280;4989;48.772;9.154;2023-11-21T07:46:33;97566.75;;;10.11;100.00
18850;BME280;4989;48.772;9.154;2023-11-21T07:51:35;97570.25;;;9.95;100.00
18850;BME280;4989;48.772;9.154;2023-11-21T07:56:37;97562.56;;;9.61;100.00
18850;BME280;4989;48.772;9.154;2023-11-21T08:01:40;97566.00;;;9.32;100.00
18850;BME280;4989;48.772;9.154;2023-11-21T08:06:42;97570.97;;;9.17;100.00
18850;BME280;4989;48.772;9.154;2023-11-21T08:11:44;97570.69;;;9.12;100.00
18850;BME280;4989;48.772;9.154;2023-11-21T08:16:48;97579.25;;;9.10;100.00
18850;BME280;4989;48.772;9.154;2023-11-21T08:21:51;97583.81;;;8.97;100.00
18850;BME280;4989;48.772;9.154;2023-11-21T08:26:56;97584.16;;;9.15;100.00
18850;BME280;4989;48.772;9.154;2023-11-21T08:31:58;97586.41;;;9.53;100.00
18850;BME280;4989;48.772;9.154;2023-11-21T08:37:02;97596.19;;;10.13;100.00
18850;BME280;4989;48.772;9.154;2023-11-21T08:42:04;97593.53;;;9.63;100.00
18850;BME280;4989;48.772;9.154;2023-11-21T08:47:07;97592.06;;;9.59;100.00
18850;BME280;4989;48.772;9.154;2023-11-21T08:52:10;97594.34;;;9.93;100.00
18850;BME280;4989;48.772;9.154;2023-11-21T08:57:12;97609.25;;;10.18;100.00
18850;BME280;4989;48.772;9.154;2023-11-21T09:02:14;97609.84;;;10.54;100.00
18850;BME280;4989;48.772;9.154;2023-11-21T09:07:16;97618.72;;;10.42;100.00
18850;BME280;4989;48.772;9.154;2023-11-21T09:12:22;97611.09;;;10.66;100.00
18850;BME280;4989;48.772;9.154;2023-11-21T09:17:26;97620.31;;;11.11;100.00
18850;BME280;4989;48.772;9.154;2023-11-21T09:22:29;97624.13;;;11.39;100.00
18850;BME280;4989;48.772;9.154;2023-11-21T09:27:32;97628.94;;;10.80;100.00
18850;BME280;4989;48.772;9.154;2023-11-21T09:32:34;97623.78;;;10.57;100.00
18850;BME280;4989;48.772;9.154;2023-11-21T09:37:37;97635.00;;;11.52;100.00
18850;BME280;4989;48.772;9.154;2023-11-21T09:42:50;97635.59;;;12.42;100.00
18850;BME280;4989;48.772;9.154;2023-11-21T09:47:56;97641.13;;;12.73;100.00
18850;BME280;4989;48.772;9.154;2023-11-21T09:53:18;97653.28;;;11.38;100.00
18850;BME280;4989;48.772;9.154;2023-11-21T09:58:23;97647.03;;;10.58;100.00
18850;BME280;4989;48.772;9.154;2023-11-21T10:03:27;97654.41;;;10.86;100.00
18850;BME280;4989;48.772;9.154;2023-11-21T10:08:30;97657.94;;;11.12;100.00
18850;BME280;4989;48.772;9.154;2023-11-21T10:13:54;97651.81;;;12.80;100.00
18850;BME280;4989;48.772;9.154;2023-11-21T10:18:58;97663.00;;;13.04;100.00
18850;BME280;4989;48.772;9.154;2023-11-21T10:24:12;97656.06;;;13.12;100.00
18850;BME280;4989;48.772;9.154;2023-11-21T10:29:14;97663.28;;;13.50;100.00
18850;BME280;4989;48.772;9.154;2023-11-21T10:34:20;97672.19;;;13.19;100.00
18850;BME280;4989;48.772;9.154;2023-11-21T10:39:25;97666.25;;;12.90;100.00
18850;BME280;4989;48.772;9.154;2023-11-21T10:44:34;97662.44;;;12.65;100.00
18850;BME280;4989;48.772;9.154;2023-11-21T10:49:37;97672.75;;;12.01;100.00
18850;BME280;4989;48.772;9.154;2023-11-21T10:54:39;97671.63;;;12.24;100.00
18850;BME280;4989;48.772;9.154;2023-11-21T10:59:43;97672.66;;;12.96;100.00
18850;BME280;4989;48.772;9.154;2023-11-21T11:04:48;97677.50;;;12.35;100.00
18850;BME280;4989;48.772;9.154;2023-11-21T11:09:52;97674.22;;;12.27;100.00
18850;BME280;4989;48.772;9.154;2023-11-21T11:14:56;97673.56;;;12.36;100.00
18850;BME280;4989;48.772;9.154;2023-11-21T11:19:58;97668.28;;;12.98;100.00
18850;BME280;4989;48.772;9.154;2023-11-21T11:25:30;97681.81;;;11.72;100.00
18850;BME280;4989;48.772;9.154;2023-11-21T11:30:50;97672.25;;;13.06;100.00
18850;BME280;4989;48.772;9.154;2023-11-21T11:41:31;97676.09;;;13.40;100.00
18850;BME280;4989;48.772;9.154;2023-11-21T11:46:46;97675.97;;;13.22;100.00
18850;BME280;4989;48.772;9.154;2023-11-21T11:57:34;97678.09;;;14.57;100.00
18850;BME280;4989;48.772;9.154;2023-11-21T12:02:40;97676.22;;;15.09;100.00
18850;BME280;4989;48.772;9.154;2023-11-21T12:07:51;97684.63;;;14.97;100.00
18850;BME280;4989;48.772;9.154;2023-11-21T12:13:06;97680.84;;;14.76;100.00
18850;BME280;4989;48.772;9.154;2023-11-21T12:18:14;97686.88;;;14.43;100.00
18850;BME280;4989;48.772;9.154;2023-11-21T12:23:17;97686.94;;;14.80;100.00
18850;BME280;4989;48.772;9.154;2023-11-21T12:28:19;97688.72;;;15.10;100.00
18850;BME280;4989;48.772;9.154;2023-11-21T12:33:21;97690.16;;;15.39;100.00
18850;BME280;4989;48.772;9.154;2023-11-21T12:38:24;97696.34;;;15.49;100.00
18850;BME280;4989;48.772;9.154;2023-11-21T12:43:27;97697.94;;;15.31;100.00
18850;BME280;4989;48.772;9.154;2023-11-21T12:48:31;97703.59;;;15.09;100.00
18850;BME280;4989;48.772;9.154;2023-11-21T12:53:34;97706.84;;;14.89;100.00
18850;BME280;4989;48.772;9.154;2023-11-21T12:58:40;97709.41;;;15.02;100.00
18850;BME280;4989;48.772;9.154;2023-11-21T13:03:48;97708.47;;;15.05;100.00
18850;BME280;4989;48.772;9.154;2023-11-21T13:08:54;97704.88;;;15.51;100.00
18850;BME280;4989;48.772;9.154;2023-11-21T13:13:59;97706.38;;;15.52;100.00
18850;BME280;4989;48.772;9.154;2023-11-21T13:19:03;97717.09;;;14.30;100.00
18850;BME280;4989;48.772;9.154;2023-11-21T13:24:05;97722.78;;;14.82;100.00
18850;BME280;4989;48.772;9.154;2023-11-21T13:29:08;97729.47;;;14.90;100.00
18850;BME280;4989;48.772;9.154;2023-11-21T13:34:10;97742.09;;;15.06;100.00
18850;BME280;4989;48.772;9.154;2023-11-21T13:39:22;97744.03;;;15.33;100.00
18850;BME280;4989;48.772;9.154;2023-11-21T13:44:24;97751.38;;;15.08;100.00
18850;BME280;4989;48.772;9.154;2023-11-21T13:49:36;97755.00;;;14.78;100.00
18850;BME280;4989;48.772;9.154;2023-11-21T13:54:42;97756.38;;;14.82;100.00
18850;BME280;4989;48.772;9.154;2023-11-21T13:59:45;97765.41;;;14.33;100.00
18850;BME280;4989;48.772;9.154;2023-11-21T14:04:47;97768.38;;;14.08;100.00
18850;BME280;4989;48.772;9.154;2023-11-21T14:10:04;97766.63;;;14.41;100.00
18850;BME280;4989;48.772;9.154;2023-11-21T14:15:09;97780.53;;;14.56;100.00
18850;BME280;4989;48.772;9.154;2023-11-21T14:20:13;97781.22;;;14.48;100.00
18850;BME280;4989;48.772;9.154;2023-11-21T14:25:23;97785.84;;;14.69;100.00
18850;BME280;4989;48.772;9.154;2023-11-21T14:30:26;97787.53;;;14.76;100.00
18850;BME280;4989;48.772;9.154;2023-11-21T14:35:29;97798.75;;;14.59;100.00
18850;BME280;4989;48.772;9.154;2023-11-21T14:40:34;97806.22;;;14.68;100.00
18850;BME280;4989;48.772;9.154;2023-11-21T14:45:38;97796.69;;;14.32;100.00
18850;BME280;4989;48.772;9.154;2023-11-21T14:50:40;97806.59;;;14.48;100.00
18850;BME280;4989;48.772;9.154;2023-11-21T14:56:01;97811.75;;;14.46;100.00
18850;BME280;4989;48.772;9.154;2023-11-21T15:01:06;97821.72;;;14.31;100.00
18850;BME280;4989;48.772;9.154;2023-11-21T15:06:10;97823.00;;;14.39;100.00
18850;BME280;4989;48.772;9.154;2023-11-21T15:11:23;97836.34;;;14.37;100.00
18850;BME280;4989;48.772;9.154;2023-11-21T15:16:34;97839.50;;;14.26;100.00
18850;BME280;4989;48.772;9.154;2023-11-21T15:21:41;97845.06;;;14.13;100.00
18850;BME280;4989;48.772;9.154;2023-11-21T15:26:43;97857.78;;;14.38;100.00
18850;BME280;4989;48.772;9.154;2023-11-21T15:31:45;97860.16;;;14.58;100.00
18850;BME280;4989;48.772;9.154;2023-11-21T15:36:50;97859.47;;;14.45;100.00
18850;BME280;4989;48.772;9.154;2023-11-21T15:41:58;97866.72;;;14.39;100.00
18850;BME280;4989;48.772;9.154;2023-11-21T15:47:00;97878.81;;;14.19;100.00
18850;BME280;4989;48.772;9.154;2023-11-21T15:52:06;97880.78;;;13.31;100.00
18850;BME280;4989;48.772;9.154;2023-11-21T15:57:09;97877.38;;;12.92;100.00
18850;BME280;4989;48.772;9.154;2023-11-21T16:02:12;97887.03;;;13.75;100.00
18850;BME280;4989;48.772;9.154;2023-11-21T16:07:17;97899.09;;;14.09;100.00
18850;BME280;4989;48.772;9.154;2023-11-21T16:12:20;97895.00;;;14.45;100.00
18850;BME280;4989;48.772;9.154;2023-11-21T16:17:24;97905.38;;;14.50;100.00
18850;BME280;4989;48.772;9.154;2023-11-21T16:22:26;97911.16;;;14.52;100.00
18850;BME280;4989;48.772;9.154;2023-11-21T16:27:30;97910.28;;;14.55;100.00
18850;BME280;4989;48.772;9.154;2023-11-21T16:32:34;97924.44;;;14.63;100.00
18850;BME280;4989;48.772;9.154;2023-11-21T16:37:39;97938.91;;;14.73;100.00
18850;BME280;4989;48.772;9.154;2023-11-21T16:42:41;97939.19;;;14.65;100.00
18850;BME280;4989;48.772;9.154;2023-11-21T16:47:43;97950.28;;;14.40;100.00
18850;BME280;4989;48.772;9.154;2023-11-21T16:52:45;97954.47;;;13.18;100.00
18850;BME280;4989;48.772;9.154;2023-11-21T16:57:48;97960.81;;;12.38;100.00
18850;BME280;4989;48.772;9.154;2023-11-21T17:02:51;97973.00;;;11.92;100.00
18850;BME280;4989;48.772;9.154;2023-11-21T17:07:54;97974.19;;;11.45;100.00
18850;BME280;4989;48.772;9.154;2023-11-21T17:12:56;97980.50;;;11.42;100.00
18850;BME280;4989;48.772;9.154;2023-11-21T17:17:59;97984.97;;;11.49;100.00
18850;BME280;4989;48.772;9.154;2023-11-21T17:23:03;97984.16;;;11.36;100.00
18850;BME280;4989;48.772;9.154;2023-11-21T17:28:07;97988.13;;;11.31;100.00
18850;BME280;4989;48.772;9.154;2023-11-21T17:33:18;97991.81;;;11.24;100.00
18850;BME280;4989;48.772;9.154;2023-11-21T17:38:20;97991.72;;;11.12;100.00
18850;BME280;4989;48.772;9.154;2023-11-21T17:43:23;98011.44;;;10.99;100.00
18850;BME280;4989;48.772;9.154;2023-11-21T17:48:25;98009.91;;;11.15;100.00
18850;BME280;4989;48.772;9.154;2023-11-21T17:53:31;98016.72;;;11.23;100.00
18850;BME280;4989;48.772;9.154;2023-11-21T17:58:34;98027.25;;;11.21;100.00
18850;BME280;4989;48.772;9.154;2023-11-21T18:03:37;98026.91;;;11.19;100.00
18850;BME280;4989;48.772;9.154;2023-11-21T18:08:43;98038.63;;;11.16;100.00
18850;BME280;4989;48.772;9.154;2023-11-21T18:13:45;98046.72;;;11.19;100.00
18850;BME280;4989;48.772;9.154;2023-11-21T18:18:48;98057.19;;;11.21;100.00
18850;BME280;4989;48.772;9.154;2023-11-21T18:23:52;98047.81;;;11.22;100.00
18850;BME280;4989;48.772;9.154;2023-11-21T18:28:54;98063.75;;;11.23;100.00
18850;BME280;4989;48.772;9.154;2023-11-21T18:33:56;98069.09;;;11.27;100.00
18850;BME280;4989;48.772;9.154;2023-11-21T18:38:58;98080.81;;;11.40;100.00
18850;BME280;4989;48.772;9.154;2023-11-21T18:44:01;98080.06;;;11.40;100.00
18850;BME280;4989;48.772;9.154;2023-11-21T18:49:04;98082.97;;;11.33;100.00
18850;BME280;4989;48.772;9.154;2023-11-21T18:54:06;98087.28;;;11.30;100.00
18850;BME280;4989;48.772;9.154;2023-11-21T18:59:09;98093.75;;;11.20;100.00
18850;BME280;4989;48.772;9.154;2023-11-21T19:04:12;98100.31;;;11.22;100.00
18850;BME280;4989;48.772;9.154;2023-11-21T19:09:16;98110.84;;;11.20;100.00
18850;BME280;4989;48.772;9.154;2023-11-21T19:14:18;98112.53;;;11.14;100.00
18850;BME280;4989;48.772;9.154;2023-11-21T19:19:20;98125.47;;;10.90;100.00
18850;BME280;4989;48.772;9.154;2023-11-21T19:24:23;98118.34;;;10.96;100.00
18850;BME280;4989;48.772;9.154;2023-11-21T19:29:25;98122.25;;;10.95;100.00
18850;BME280;4989;48.772;9.154;2023-11-21T19:34:27;98139.94;;;11.04;100.00
18850;BME280;4989;48.772;9.154;2023-11-21T19:39:31;98151.53;;;11.08;100.00
18850;BME280;4989;48.772;9.154;2023-11-21T19:44:34;98145.44;;;11.20;100.00
18850;BME280;4989;48.772;9.154;2023-11-21T19:49:38;98147.44;;;11.16;100.00
18850;BME280;4989;48.772;9.154;2023-11-21T19:54:41;98148.28;;;11.13;100.00
18850;BME280;4989;48.772;9.154;2023-11-21T19:59:43;98152.69;;;11.07;100.00
18850;BME280;4989;48.772;9.154;2023-11-21T20:04:47;98159.34;;;11.06;100.00
18850;BME280;4989;48.772;9.154;2023-11-21T20:09:49;98172.84;;;11.09;100.00
18850;BME280;4989;48.772;9.154;2023-11-21T20:14:52;98180.31;;;11.05;100.00
18850;BME280;4989;48.772;9.154;2023-11-21T20:19:54;98197.81;;;11.24;100.00
18850;BME280;4989;48.772;9.154;2023-11-21T20:24:56;98201.66;;;11.27;100.00
18850;BME280;4989;48.772;9.154;2023-11-21T20:29:59;98200.88;;;11.26;100.00
18850;BME280;4989;48.772;9.154;2023-11-21T20:35:03;98205.28;;;11.20;100.00
18850;BME280;4989;48.772;9.154;2023-11-21T20:40:10;98208.13;;;11.13;100.00
18850;BME280;4989;48.772;9.154;2023-11-21T20:45:13;98224.13;;;11.11;100.00
18850;BME280;4989;48.772;9.154;2023-11-21T20:50:16;98228.44;;;11.08;100.00
18850;BME280;4989;48.772;9.154;2023-11-21T20:55:19;98227.53;;;10.95;100.00
18850;BME280;4989;48.772;9.154;2023-11-21T21:00:22;98229.34;;;11.02;100.00
18850;BME280;4989;48.772;9.154;2023-11-21T21:05:27;98228.72;;;11.14;100.00
18850;BME280;4989;48.772;9.154;2023-11-21T21:10:30;98231.50;;;11.10;100.00
18850;BME280;4989;48.772;9.154;2023-11-21T21:15:32;98234.16;;;11.14;100.00
18850;BME280;4989;48.772;9.154;2023-11-21T21:20:34;98235.34;;;11.13;100.00
18850;BME280;4989;48.772;9.154;2023-11-21T21:25:38;98241.00;;;11.02;100.00
18850;BME280;4989;48.772;9.154;2023-11-21T21:30:40;98231.16;;;10.88;100.00
18850;BME280;4989;48.772;9.154;2023-11-21T21:35:44;98238.69;;;10.81;100.00
18850;BME280;4989;48.772;9.154;2023-11-21T21:40:46;98232.06;;;10.82;100.00
18850;BME280;4989;48.772;9.154;2023-11-21T21:45:48;98240.50;;;10.87;100.00
18850;BME280;4989;48.772;9.154;2023-11-21T21:50:50;98242.25;;;10.97;100.00
18850;BME280;4989;48.772;9.154;2023-11-21T21:55:53;98236.47;;;10.95;100.00
18850;BME280;4989;48.772;9.154;2023-11-21T22:00:55;98245.09;;;10.90;100.00
18850;BME280;4989;48.772;9.154;2023-11-21T22:06:00;98243.50;;;10.93;100.00
18850;BME280;4989;48.772;9.154;2023-11-21T22:11:03;98255.28;;;10.86;100.00
18850;BME280;4989;48.772;9.154;2023-11-21T22:16:06;98253.66;;;10.89;100.00
18850;BME280;4989;48.772;9.154;2023-11-21T22:21:13;98258.34;;;10.88;100.00
18850;BME280;4989;48.772;9.154;2023-11-21T22:26:17;98256.81;;;10.87;100.00
18850;BME280;4989;48.772;9.154;2023-11-21T22:31:21;98259.59;;;10.84;100.00
18850;BME280;4989;48.772;9.154;2023-11-21T22:36:23;98264.50;;;10.92;100.00
18850;BME280;4989;48.772;9.154;2023-11-21T22:41:26;98269.00;;;10.79;100.00
18850;BME280;4989;48.772;9.154;2023-11-21T22:46:29;98266.97;;;10.83;100.00
18850;BME280;4989;48.772;9.154;2023-11-21T22:51:32;98269.59;;;10.67;100.00
18850;BME280;4989;48.772;9.154;2023-11-21T22:56:34;98271.13;;;10.68;100.00
18850;BME280;4989;48.772;9.154;2023-11-21T23:01:36;98282.72;;;10.72;100.00
18850;BME280;4989;48.772;9.154;2023-11-21T23:06:39;98283.72;;;10.82;100.00
18850;BME280;4989;48.772;9.154;2023-11-21T23:11:43;98286.56;;;10.74;100.00
18850;BME280;4989;48.772;9.154;2023-11-21T23:16:45;98288.09;;;10.75;100.00
18850;BME280;4989;48.772;9.154;2023-11-21T23:21:53;98279.41;;;10.61;100.00
18850;BME280;4989;48.772;9.154;2023-11-21T23:26:55;98285.19;;;10.63;100.00
18850;BME280;4989;48.772;9.154;2023-11-21T23:31:57;98288.75;;;10.60;100.00
18850;BME280;4989;48.772;9.154;2023-11-21T23:37:01;98295.09;;;10.49;100.00
18850;BME280;4989;48.772;9.154;2023-11-21T23:42:05;98294.66;;;10.54;100.00
18850;BME280;4989;48.772;9.154;2023-11-21T23:47:07;98287.78;;;11.73;100.00
18850;BME280;4989;48.772;9.154;2023-11-21T23:52:09;98276.56;;;12.56;100.00
18850;BME280;4989;48.772;9.154;2023-11-21T23:57:11;98283.03;;;12.79;100.00
